map of GRS home
Great Circle Mapper logo
GRS - Airport
Location
City:  Grosseto, Tuscany, Italy
ICAO / IATA:LIRS / GRS

Details
Type:Airport (Aerodrome, Airfield)
Use:Public/Civil, Military, International (customs port of entry)
Latitude:4245'35"N (42.759747)
Longitude:1104'19"E (11.071897)
Datum:WGS 1984
Elevation:15 ft (5 m)
Variation:2.55E (WMM2015 magnetic declination)
0.11 annual change
Runways:2
Longest:9823 × 148 ft (2994 × 45 m), paved

Time
Time Zone:UTC+1 (DST+2)
Local Time:

Weather
METAR:LIRS 310355Z 36004KT CAVOK 24/22 Q1009 RMK SCT SCT130 VIS MIN 9999 WIND THR03 01005KT WIND THR21 /////KT BLU

Related Locations
Nearby:
Farthest:CHT: 12054 mi / 19399 km
Waitangi [Tuuta], Chatham Islands, NZ

Find:

   beyond  
but within

Other Information
Maps:
NOTAMs:
Links:
Sources:

  
flag of Italy
flag of Tuscany
  

Sectional Chart

Flight Planning
at skyvector.com

Satellite Image

Google Maps Satellite view

 

Copyright © 2004-2015 Karl L. Swartz. All rights reserved.
The Great Circle Mapper name and logo are trademarks of the Great Circle Mapper.
All other trademarks mentioned herein belong to their respective owners.
Please see credits for attibutions and further copyright information.

  Follow gcmap on Facebook Follow gcmap on Twitter Follow gcmap on Google+

hCard Microformat

Geo Microformat